createdAt,value
2023-04-16T00:00:46.368Z,87.98
2023-04-16T00:03:14.229Z,87.40
2023-04-16T00:05:43.452Z,89.96
2023-04-16T00:08:11.200Z,92.42
2023-04-16T00:10:38.882Z,91.48
2023-04-16T00:13:06.525Z,89.75
2023-04-16T00:15:34.273Z,92.25
2023-04-16T00:18:01.968Z,90.67
2023-04-16T00:20:29.652Z,92.86
2023-04-16T00:22:59.178Z,90.14
2023-04-16T00:25:26.910Z,90.82
2023-04-16T00:27:54.694Z,89.15
2023-04-16T00:30:22.475Z,85.46
2023-04-16T00:32:50.226Z,87.20
2023-04-16T00:35:18.174Z,84.44
2023-04-16T00:37:45.974Z,87.80
2023-04-16T00:40:15.167Z,88.00
2023-04-16T00:42:42.911Z,87.19
2023-04-16T00:45:12.312Z,87.86
2023-04-16T00:47:40.338Z,88.65
2023-04-16T00:50:08.988Z,88.66
2023-04-16T00:52:36.892Z,87.76
2023-04-16T00:55:05.566Z,88.22
2023-04-16T00:57:34.621Z,88.86
2023-04-16T01:00:02.736Z,87.46
2023-04-16T01:02:30.592Z,88.33
2023-04-16T01:04:58.565Z,88.04
2023-04-16T01:07:26.221Z,88.25
2023-04-16T01:09:53.974Z,87.21
2023-04-16T01:12:21.627Z,89.81
2023-04-16T01:14:50.876Z,90.34
2023-04-16T01:17:18.547Z,88.51
2023-04-16T01:19:46.236Z,90.02
2023-04-16T01:22:15.447Z,87.28
2023-04-16T01:24:43.185Z,84.50
2023-04-16T01:27:10.928Z,82.61
2023-04-16T01:29:38.669Z,84.86
2023-04-16T01:32:06.568Z,82.31
2023-04-16T01:34:34.254Z,81.06
2023-04-16T01:37:02.002Z,82.26
2023-04-16T01:39:31.067Z,81.78
2023-04-16T01:41:58.789Z,80.23
2023-04-16T01:44:26.473Z,80.48
2023-04-16T01:46:54.632Z,80.50
2023-04-16T01:49:22.370Z,81.16
2023-04-16T01:51:50.111Z,81.76
2023-04-16T01:54:17.813Z,84.42
2023-04-16T01:56:46.886Z,88.22
2023-04-16T01:59:14.608Z,88.49
2023-04-16T02:01:43.322Z,88.75
2023-04-16T02:04:11.736Z,85.38
2023-04-16T02:06:40.821Z,85.88
2023-04-16T02:09:08.610Z,83.83
2023-04-16T02:11:36.367Z,83.67
2023-04-16T02:14:05.394Z,83.64
2023-04-16T02:16:33.161Z,84.04
2023-04-16T02:19:00.845Z,84.39
2023-04-16T02:21:28.611Z,81.82
2023-04-16T02:23:56.320Z,86.08
2023-04-16T02:26:23.980Z,85.50
2023-04-16T02:28:51.865Z,85.46
2023-04-16T02:31:22.402Z,86.41
2023-04-16T02:33:50.099Z,85.33
2023-04-16T02:36:17.812Z,86.04
2023-04-16T02:38:45.503Z,82.60
2023-04-16T02:41:13.675Z,82.82
2023-04-16T02:43:41.512Z,84.00
2023-04-16T02:46:09.439Z,82.30
2023-04-16T02:48:38.560Z,80.11
2023-04-16T02:51:06.906Z,81.35
2023-04-16T02:53:34.674Z,81.03
2023-04-16T02:56:02.414Z,79.74
2023-04-16T02:58:30.146Z,79.99
2023-04-16T03:00:57.851Z,81.89
2023-04-16T03:03:25.582Z,81.41
2023-04-16T03:05:54.670Z,81.14
2023-04-16T03:08:22.541Z,80.24
2023-04-16T03:10:50.275Z,79.99
2023-04-16T03:13:17.978Z,79.66
2023-04-16T03:15:49.415Z,82.40
2023-04-16T03:18:17.233Z,81.75
2023-04-16T03:20:44.948Z,80.38
2023-04-16T03:23:13.968Z,80.86
2023-04-16T03:25:43.590Z,82.42
2023-04-16T03:28:11.370Z,85.32
2023-04-16T03:30:39.075Z,86.56
2023-04-16T03:33:06.815Z,83.60
2023-04-16T03:35:34.734Z,83.16
2023-04-16T03:38:02.582Z,82.11
2023-04-16T03:40:31.693Z,81.27
2023-04-16T03:42:59.383Z,81.34
2023-04-16T03:45:27.074Z,80.39
2023-04-16T03:47:54.826Z,80.17
2023-04-16T03:50:22.802Z,80.18
2023-04-16T03:52:50.494Z,83.49
2023-04-16T03:55:18.347Z,84.45
2023-04-16T03:57:47.447Z,82.75
2023-04-16T04:00:15.449Z,81.11
2023-04-16T04:02:43.319Z,82.32
2023-04-16T04:05:11.378Z,82.21
2023-04-16T04:07:39.109Z,81.05
2023-04-16T04:10:08.206Z,80.10
2023-04-16T04:12:35.908Z,82.22
2023-04-16T04:15:05.648Z,81.25
2023-04-16T04:17:33.318Z,82.29
2023-04-16T04:20:02.069Z,81.97
2023-04-16T04:22:29.970Z,80.76
2023-04-16T04:24:57.836Z,81.70
2023-04-16T04:27:25.661Z,82.28
2023-04-16T04:29:53.365Z,81.70
2023-04-16T04:32:22.431Z,83.13
2023-04-16T04:34:50.370Z,82.24
2023-04-16T04:37:18.073Z,81.75
2023-04-16T04:39:45.816Z,80.53
2023-04-16T04:42:13.646Z,81.20
2023-04-16T04:44:41.364Z,81.37
2023-04-16T04:47:09.284Z,80.29
2023-04-16T04:49:38.384Z,80.19
2023-04-16T04:52:06.100Z,79.63
2023-04-16T04:54:34.406Z,79.44
2023-04-16T04:57:02.422Z,79.44
2023-04-16T04:59:30.194Z,79.96
2023-04-16T05:01:57.882Z,79.38
2023-04-16T05:04:25.607Z,80.05
2023-04-16T05:06:54.676Z,79.59
2023-04-16T05:09:22.430Z,80.17
2023-04-16T05:11:50.405Z,81.09
2023-04-16T05:14:18.169Z,80.02
2023-04-16T05:16:46.038Z,83.55
2023-04-16T05:19:13.788Z,82.83
2023-04-16T05:21:41.525Z,81.09
2023-04-16T05:24:11.624Z,79.69
2023-04-16T05:26:40.301Z,79.72
2023-04-16T05:29:08.315Z,80.24
2023-04-16T05:31:36.399Z,81.63
2023-04-16T05:34:04.121Z,82.13
2023-04-16T05:36:31.833Z,82.17
2023-04-16T05:38:59.536Z,81.04
2023-04-16T05:41:28.742Z,82.08
2023-04-16T05:43:56.449Z,83.60
2023-04-16T05:46:24.342Z,81.38
2023-04-16T05:48:52.341Z,80.89
2023-04-16T05:51:20.158Z,82.67
2023-04-16T05:53:47.966Z,82.41
2023-04-16T05:56:15.666Z,81.07
2023-04-16T05:58:44.757Z,81.82
2023-04-16T06:01:12.594Z,83.39
2023-04-16T06:03:40.457Z,80.58
2023-04-16T06:06:08.944Z,81.22
2023-04-16T06:08:36.603Z,80.81
2023-04-16T06:11:04.919Z,80.15
2023-04-16T06:13:32.680Z,80.90
2023-04-16T06:16:01.909Z,81.92
2023-04-16T06:18:29.672Z,81.85
2023-04-16T06:20:58.839Z,82.06
2023-04-16T06:23:26.706Z,82.17
2023-04-16T06:25:54.504Z,84.63
2023-04-16T06:28:22.378Z,84.15
2023-04-16T06:30:50.158Z,82.47
2023-04-16T06:33:19.486Z,81.05
2023-04-16T06:35:47.173Z,84.92
2023-04-16T06:38:15.551Z,82.85
2023-04-16T06:40:43.305Z,85.79
2023-04-16T06:43:11.086Z,85.61
2023-04-16T06:45:38.829Z,81.59
2023-04-16T06:48:06.871Z,81.29
2023-04-16T06:50:36.054Z,82.59
2023-04-16T06:53:03.890Z,82.55
2023-04-16T06:55:31.586Z,83.50
2023-04-16T06:57:59.314Z,83.12
2023-04-16T07:00:27.001Z,82.76
2023-04-16T07:02:57.115Z,83.31
2023-04-16T07:05:26.211Z,84.01
2023-04-16T07:07:56.777Z,82.40
2023-04-16T07:10:24.766Z,82.56
2023-04-16T07:12:52.610Z,81.92
2023-04-16T07:15:20.326Z,81.06
2023-04-16T07:17:48.068Z,83.10
2023-04-16T07:20:15.964Z,83.24
2023-04-16T07:22:43.680Z,82.52
2023-04-16T07:25:12.892Z,83.56
2023-04-16T07:27:40.595Z,83.61
2023-04-16T07:30:09.556Z,83.10
2023-04-16T07:32:37.443Z,82.99
2023-04-16T07:35:05.654Z,81.71
2023-04-16T07:37:33.337Z,84.34
2023-04-16T07:40:01.035Z,83.71
2023-04-16T07:42:30.192Z,83.70
2023-04-16T07:44:57.906Z,85.10
2023-04-16T07:47:26.502Z,82.29
2023-04-16T07:49:54.234Z,83.75
2023-04-16T07:52:21.983Z,82.92
2023-04-16T07:54:49.692Z,82.94
2023-04-16T07:57:17.443Z,81.24
2023-04-16T07:59:46.510Z,80.71
2023-04-16T08:02:16.459Z,81.58
2023-04-16T08:04:45.238Z,81.68
2023-04-16T08:07:13.232Z,79.14
2023-04-16T08:09:49.439Z,80.19
2023-04-16T08:12:17.492Z,81.01
2023-04-16T08:14:46.858Z,81.33
2023-04-16T08:17:15.301Z,80.21
2023-04-16T08:19:43.872Z,80.87
2023-04-16T08:22:12.274Z,79.99
2023-04-16T08:24:40.012Z,80.21
2023-04-16T08:27:17.937Z,82.27
2023-04-16T08:29:48.344Z,80.20
2023-04-16T08:32:16.158Z,79.99
2023-04-16T08:34:44.043Z,78.25
2023-04-16T08:37:11.925Z,79.92
2023-04-16T08:39:39.836Z,79.02
2023-04-16T08:42:14.104Z,77.15
2023-04-16T08:44:49.335Z,76.37
2023-04-16T08:47:18.939Z,77.31
2023-04-16T08:49:46.969Z,81.55
2023-04-16T08:52:19.593Z,77.32
2023-04-16T08:54:56.920Z,77.66
2023-04-16T08:57:27.887Z,79.23
2023-04-16T08:59:56.958Z,77.48
2023-04-16T09:02:27.492Z,74.96
2023-04-16T09:04:57.310Z,76.08
2023-04-16T09:07:26.913Z,76.83
2023-04-16T09:09:55.700Z,78.16
2023-04-16T09:12:25.063Z,76.98
2023-04-16T09:14:52.849Z,77.46
2023-04-16T09:17:20.771Z,77.16
2023-04-16T09:19:49.964Z,72.89
2023-04-16T09:22:17.953Z,75.15
2023-04-16T09:24:45.666Z,75.76
2023-04-16T09:27:13.896Z,72.90
2023-04-16T09:29:42.801Z,74.79
2023-04-16T09:32:12.522Z,72.42
2023-04-16T09:37:33.487Z,73.85
2023-04-16T09:40:02.490Z,74.05
2023-04-16T09:42:32.217Z,73.85
2023-04-16T09:45:04.263Z,73.78
2023-04-16T09:47:43.921Z,74.61
2023-04-16T09:50:18.270Z,72.79
2023-04-16T09:52:50.177Z,75.93
2023-04-16T09:55:19.125Z,76.69
2023-04-16T09:57:46.764Z,76.82
2023-04-16T10:00:19.439Z,75.94
2023-04-16T10:02:49.181Z,75.52
2023-04-16T10:05:21.124Z,75.56
2023-04-16T10:07:51.020Z,74.13
2023-04-16T10:10:18.922Z,76.04
2023-04-16T10:12:46.663Z,72.36
2023-04-16T10:15:14.470Z,72.61
2023-04-16T10:17:42.341Z,72.34
2023-04-16T10:20:11.065Z,77.34
2023-04-16T10:22:39.111Z,80.35
2023-04-16T10:25:08.955Z,78.81
2023-04-16T10:27:37.996Z,77.22
2023-04-16T10:30:08.450Z,75.87
2023-04-16T10:32:37.963Z,77.58
2023-04-16T10:35:06.848Z,75.87
2023-04-16T10:37:34.558Z,75.68
2023-04-16T10:40:02.246Z,75.35
2023-04-16T10:42:32.540Z,72.84
2023-04-16T10:45:00.834Z,75.44
2023-04-16T10:47:30.455Z,79.43
2023-04-16T10:49:59.255Z,77.49
2023-04-16T10:52:30.468Z,79.64
2023-04-16T10:55:00.845Z,77.44
2023-04-16T10:57:31.807Z,78.31
2023-04-16T10:59:59.932Z,77.48
2023-04-16T11:02:30.602Z,75.98
2023-04-16T11:04:58.846Z,74.10
2023-04-16T11:07:34.430Z,73.96
2023-04-16T11:10:05.255Z,73.61
2023-04-16T11:12:37.705Z,77.59
2023-04-16T11:15:07.805Z,75.20
2023-04-16T11:17:38.962Z,75.55
2023-04-16T11:20:17.509Z,74.47
2023-04-16T11:22:48.096Z,77.75
2023-04-16T11:25:20.902Z,75.33
2023-04-16T11:27:49.910Z,76.92
2023-04-16T11:30:18.570Z,77.20
2023-04-16T11:32:47.479Z,76.62
2023-04-16T11:35:18.085Z,73.18
2023-04-16T11:37:46.795Z,76.86
2023-04-16T11:40:14.840Z,75.84
2023-04-16T11:42:44.182Z,74.29
2023-04-16T11:45:13.477Z,75.66
2023-04-16T11:47:45.620Z,75.34
2023-04-16T11:50:21.916Z,77.19
2023-04-16T11:52:50.071Z,73.97
2023-04-16T11:55:18.060Z,73.17
2023-04-16T11:57:46.538Z,77.48
2023-04-16T12:00:16.593Z,80.02
2023-04-16T12:02:45.619Z,76.94
2023-04-16T12:05:31.864Z,75.88
2023-04-16T12:08:00.672Z,75.78
2023-04-16T12:10:28.544Z,76.81
2023-04-16T12:12:56.722Z,78.45
2023-04-16T12:15:44.624Z,75.12
2023-04-16T12:18:12.292Z,77.25
2023-04-16T12:20:42.147Z,75.26
2023-04-16T12:23:10.104Z,74.44
2023-04-16T12:25:37.862Z,79.97
2023-04-16T12:28:06.233Z,75.66
2023-04-16T12:30:35.389Z,77.35
2023-04-16T12:33:16.659Z,78.47
2023-04-16T12:35:44.999Z,78.38
2023-04-16T12:38:15.034Z,78.82
2023-04-16T12:40:42.746Z,77.61
2023-04-16T12:43:10.674Z,77.01
2023-04-16T12:45:40.397Z,75.83
2023-04-16T12:48:08.417Z,74.69
2023-04-16T12:50:36.212Z,75.95
2023-04-16T12:53:03.840Z,78.52
2023-04-16T12:55:31.452Z,78.35
2023-04-16T12:57:59.081Z,77.31
2023-04-16T13:00:26.725Z,76.27
2023-04-16T13:02:56.082Z,76.46
2023-04-16T13:05:23.757Z,75.84
2023-04-16T13:07:51.492Z,75.24
2023-04-16T13:10:19.300Z,76.02
2023-04-16T13:12:46.992Z,74.90
2023-04-16T13:15:14.654Z,74.75
2023-04-16T13:17:42.252Z,74.98
2023-04-16T13:20:11.975Z,76.06
2023-04-16T13:22:40.190Z,76.96
2023-04-16T13:25:09.450Z,75.89
2023-04-16T13:27:37.025Z,75.52
2023-04-16T13:30:05.050Z,74.80
2023-04-16T13:32:32.733Z,74.02
2023-04-16T13:35:00.355Z,74.79
2023-04-16T13:37:29.343Z,75.78
2023-04-16T13:39:57.300Z,78.82
2023-04-16T13:42:24.972Z,76.38
2023-04-16T13:44:55.027Z,77.34
2023-04-16T13:47:22.903Z,76.90
2023-04-16T13:49:50.615Z,75.40
2023-04-16T13:52:18.264Z,75.72
2023-04-16T13:54:47.205Z,74.61
2023-04-16T13:57:14.871Z,77.79
2023-04-16T13:59:42.509Z,75.39
2023-04-16T14:02:11.411Z,76.33
2023-04-16T14:04:39.018Z,76.45
2023-04-16T14:07:06.601Z,77.30
2023-04-16T14:09:34.201Z,75.22
2023-04-16T14:12:03.210Z,78.34
2023-04-16T14:14:31.166Z,76.42
2023-04-16T14:16:59.181Z,78.46
2023-04-16T14:19:26.884Z,77.24
2023-04-16T14:21:54.485Z,77.91
2023-04-16T14:24:22.109Z,76.24
2023-04-16T14:26:49.717Z,74.29
2023-04-16T14:29:18.708Z,73.19
2023-04-16T14:31:46.533Z,74.25
2023-04-16T14:34:14.153Z,74.13
2023-04-16T14:36:42.004Z,75.42
2023-04-16T14:39:10.511Z,78.35
2023-04-16T14:41:38.334Z,77.49
2023-04-16T14:44:06.770Z,77.96
2023-04-16T14:46:36.092Z,76.48
2023-04-16T14:49:03.983Z,75.31
2023-04-16T14:51:31.994Z,76.70
2023-04-16T14:53:59.619Z,75.72
2023-04-16T14:56:27.205Z,78.62
2023-04-16T14:58:54.947Z,76.18
2023-04-16T15:01:22.633Z,76.31
2023-04-16T15:03:51.716Z,76.31
2023-04-16T15:06:19.494Z,76.51
2023-04-16T15:08:47.129Z,75.58
2023-04-16T15:11:14.712Z,75.30
2023-04-16T15:13:42.323Z,75.36
2023-04-16T15:16:09.948Z,79.23
2023-04-16T15:18:37.561Z,77.29
2023-04-16T15:21:06.632Z,76.85
2023-04-16T15:23:34.266Z,78.93
2023-04-16T15:26:01.852Z,78.11
2023-04-16T15:28:29.434Z,79.29
2023-04-16T15:30:57.575Z,75.27
2023-04-16T15:33:26.278Z,74.70
2023-04-16T15:35:53.914Z,77.13
2023-04-16T15:38:22.853Z,78.20
2023-04-16T15:40:50.815Z,75.34
2023-04-16T15:43:18.476Z,76.38
2023-04-16T15:45:46.148Z,75.92
2023-04-16T15:48:14.311Z,76.65
2023-04-16T15:50:42.049Z,76.12
2023-04-16T15:53:09.912Z,75.98
2023-04-16T15:55:38.978Z,76.94
2023-04-16T15:58:06.708Z,76.08
2023-04-16T16:00:34.405Z,77.67
2023-04-16T16:03:02.306Z,75.59
2023-04-16T16:05:30.293Z,73.41
2023-04-16T16:07:58.720Z,73.86
2023-04-16T16:10:26.586Z,72.87
2023-04-16T16:12:57.244Z,74.36
2023-04-16T16:15:24.993Z,75.06
2023-04-16T16:17:53.545Z,74.86
2023-04-16T16:20:22.623Z,75.31
2023-04-16T16:22:52.953Z,73.85
2023-04-16T16:25:21.383Z,76.75
2023-04-16T16:27:49.162Z,74.27
2023-04-16T16:30:18.479Z,77.82
2023-04-16T16:32:46.288Z,75.59
2023-04-16T16:35:14.244Z,73.94
2023-04-16T16:37:42.323Z,76.04
2023-04-16T16:40:11.274Z,75.47
2023-04-16T16:42:39.099Z,74.50
2023-04-16T16:45:07.817Z,73.89
2023-04-16T16:47:38.878Z,73.32
2023-04-16T16:50:07.980Z,76.16
2023-04-16T16:52:35.776Z,76.57
2023-04-16T16:55:04.056Z,79.68
2023-04-16T16:57:31.803Z,75.94
2023-04-16T16:59:59.578Z,75.86
2023-04-16T17:02:27.489Z,75.01
2023-04-16T17:04:58.970Z,73.63
2023-04-16T17:07:27.390Z,76.19
2023-04-16T17:09:55.182Z,74.70
2023-04-16T17:12:23.641Z,74.28
2023-04-16T17:14:52.150Z,75.46
2023-04-16T17:17:20.026Z,74.78
2023-04-16T17:19:47.745Z,73.79
2023-04-16T17:22:16.895Z,75.43
2023-04-16T17:24:44.692Z,77.64
2023-04-16T17:27:12.487Z,77.69
2023-04-16T17:29:40.225Z,76.62
2023-04-16T17:32:08.052Z,78.86
2023-04-16T17:34:36.145Z,79.60
2023-04-16T17:37:03.889Z,77.71
2023-04-16T17:39:33.108Z,79.27
2023-04-16T17:42:03.014Z,79.37
2023-04-16T17:44:30.729Z,78.37
2023-04-16T17:46:58.494Z,79.02
2023-04-16T17:49:26.281Z,78.18
2023-04-16T17:51:55.160Z,77.19
2023-04-16T17:54:22.920Z,77.02
2023-04-16T17:56:52.058Z,77.92
2023-04-16T17:59:20.209Z,78.98
2023-04-16T18:01:49.508Z,81.87
2023-04-16T18:04:17.720Z,79.08
2023-04-16T18:06:45.897Z,78.68
2023-04-16T18:09:14.316Z,77.93
2023-04-16T18:11:42.125Z,77.01
2023-04-16T18:14:13.450Z,75.68
2023-04-16T18:16:41.822Z,77.37
2023-04-16T18:19:09.637Z,78.08
2023-04-16T18:21:37.434Z,76.81
2023-04-16T18:24:05.430Z,78.78
2023-04-16T18:26:35.707Z,77.51
2023-04-16T18:29:04.062Z,76.74
2023-04-16T18:31:33.276Z,75.94
2023-04-16T18:34:01.162Z,77.69
2023-04-16T18:36:28.898Z,77.30
2023-04-16T18:39:02.127Z,76.84
2023-04-16T18:41:30.752Z,76.62
2023-04-16T18:43:58.678Z,78.98
2023-04-16T18:46:27.378Z,78.81
2023-04-16T18:48:56.765Z,75.77
2023-04-16T18:51:24.967Z,76.61
2023-04-16T18:53:52.828Z,76.38
2023-04-16T18:56:20.852Z,77.39
2023-04-16T18:58:49.344Z,75.81
2023-04-16T19:01:17.938Z,78.37
2023-04-16T19:03:46.187Z,80.10
2023-04-16T19:06:15.474Z,79.39
2023-04-16T19:08:43.340Z,78.29
2023-04-16T19:11:11.114Z,79.24
2023-04-16T19:13:39.296Z,80.17
2023-04-16T19:16:11.445Z,77.92
2023-04-16T19:18:39.736Z,77.41
2023-04-16T19:21:07.620Z,79.24
2023-04-16T19:23:36.860Z,80.59
2023-04-16T19:26:04.725Z,78.60
2023-04-16T19:28:32.510Z,78.93
2023-04-16T19:31:00.407Z,80.18
2023-04-16T19:33:28.182Z,82.39
2023-04-16T19:35:56.042Z,82.64
2023-04-16T19:38:23.752Z,79.45
2023-04-16T19:40:52.909Z,81.29
2023-04-16T19:43:20.660Z,81.51
2023-04-16T19:45:52.422Z,79.17
2023-04-16T19:48:20.429Z,79.28
2023-04-16T19:50:48.482Z,82.54
2023-04-16T19:53:17.125Z,81.48
2023-04-16T19:55:45.056Z,80.24
2023-04-16T19:58:14.686Z,79.47
2023-04-16T20:00:43.167Z,82.22
2023-04-16T20:03:11.224Z,80.86
2023-04-16T20:05:39.104Z,80.42
2023-04-16T20:08:07.485Z,81.02
2023-04-16T20:10:45.144Z,82.17
2023-04-16T20:13:16.728Z,81.57
2023-04-16T20:15:47.237Z,82.95
2023-04-16T20:18:15.380Z,81.06
2023-04-16T20:20:43.139Z,80.24
2023-04-16T20:23:10.893Z,80.54
2023-04-16T20:25:42.144Z,79.54
2023-04-16T20:28:10.102Z,79.76
2023-04-16T20:30:39.701Z,81.95
2023-04-16T20:33:10.638Z,82.26
2023-04-16T20:35:38.377Z,80.58
2023-04-16T20:38:06.158Z,82.07
2023-04-16T20:40:34.040Z,82.32
2023-04-16T20:43:01.768Z,79.73
2023-04-16T20:45:32.160Z,80.11
2023-04-16T20:48:01.694Z,79.64
2023-04-16T20:50:29.498Z,79.74
2023-04-16T20:52:57.408Z,80.16
2023-04-16T20:55:25.612Z,79.86
2023-04-16T20:57:53.399Z,79.40
2023-04-16T21:00:22.352Z,80.45
2023-04-16T21:02:50.220Z,82.65
2023-04-16T21:05:21.354Z,82.71
2023-04-16T21:07:49.210Z,83.13
2023-04-16T21:10:20.294Z,82.56
2023-04-16T21:12:48.209Z,80.70
2023-04-16T21:15:16.254Z,79.75
2023-04-16T21:17:44.278Z,81.57
2023-04-16T21:20:13.656Z,84.21
2023-04-16T21:22:42.921Z,85.37
2023-04-16T21:25:11.147Z,82.86
2023-04-16T21:27:38.812Z,82.21
2023-04-16T21:30:07.643Z,81.15
2023-04-16T21:32:35.391Z,80.60
2023-04-16T21:35:03.729Z,81.64
2023-04-16T21:37:31.408Z,81.18
2023-04-16T21:40:00.514Z,81.65
2023-04-16T21:42:28.202Z,80.21
2023-04-16T21:44:55.926Z,80.01
2023-04-16T21:47:23.741Z,80.92
2023-04-16T21:49:51.516Z,81.07
2023-04-16T21:52:19.286Z,80.35
2023-04-16T21:54:47.454Z,80.03
2023-04-16T21:57:16.539Z,80.36
2023-04-16T21:59:44.253Z,80.59
2023-04-16T22:02:12.071Z,79.51
2023-04-16T22:04:40.067Z,79.43
2023-04-16T22:07:09.085Z,84.96
2023-04-16T22:09:37.220Z,82.60
2023-04-16T22:12:07.061Z,84.56
2023-04-16T22:14:38.371Z,85.68
2023-04-16T22:17:09.368Z,83.63
2023-04-16T22:19:37.298Z,84.65
2023-04-16T22:22:05.377Z,85.76
2023-04-16T22:24:33.140Z,84.34
2023-04-16T22:27:01.449Z,82.96
2023-04-16T22:29:29.173Z,83.85
2023-04-16T22:31:58.435Z,83.56
2023-04-16T22:34:26.195Z,82.82
2023-04-16T22:36:53.927Z,82.47
2023-04-16T22:39:21.698Z,82.45
2023-04-16T22:41:49.505Z,81.80
2023-04-16T22:44:17.198Z,81.79
2023-04-16T22:46:45.363Z,80.94
2023-04-16T22:49:14.432Z,81.46
2023-04-16T22:51:42.566Z,81.06
2023-04-16T22:54:13.646Z,80.65
2023-04-16T22:56:42.250Z,80.60
2023-04-16T22:59:10.400Z,80.77
2023-04-16T23:01:38.591Z,81.73
2023-04-16T23:04:06.605Z,80.71
2023-04-16T23:06:35.682Z,81.58
2023-04-16T23:09:05.056Z,80.77
2023-04-16T23:11:32.842Z,79.81
2023-04-16T23:14:00.637Z,80.51
2023-04-16T23:16:28.761Z,80.44
2023-04-16T23:18:56.664Z,79.62
2023-04-16T23:21:24.357Z,79.73
2023-04-16T23:23:53.506Z,80.96
2023-04-16T23:26:21.164Z,80.16
2023-04-16T23:28:48.861Z,78.89
2023-04-16T23:31:16.698Z,79.01
2023-04-16T23:33:44.430Z,79.46
2023-04-16T23:36:12.215Z,79.17
2023-04-16T23:38:40.027Z,81.08
2023-04-16T23:41:09.090Z,81.29
2023-04-16T23:43:36.844Z,81.28
2023-04-16T23:46:04.809Z,80.74
2023-04-16T23:48:32.593Z,80.12
2023-04-16T23:51:00.515Z,79.52
2023-04-16T23:53:28.317Z,79.41
2023-04-16T23:55:56.019Z,80.28
2023-04-16T23:58:25.057Z,80.06
